Atmospheric History
12/06/2017 18:50  to  12/7/2017 18:50
Change End Date:
To complete the export process:
1) Select all of the data below
2) Copy the data to the clipboard
3) Open a word processor such as Notepad
4) Paste the data into the word processor
5) Save the file

Date/Time (MDT), AirTemp, RH, Dewpoint ,AvgWindSpeed, GustWindSpeed, WindDirection, PrecipType, PrecipIntensity, PrecipAccumulation, PrecipRate
12/07/2017 18:45, 39, 45, 20 ,12, 15, W, None, None, ,  
12/07/2017 18:37, 39, 46, 20 ,11, 13, W, None, None, ,  
12/07/2017 18:35, 39, 46, 20 ,9, 12, W, None, None, ,  
12/07/2017 18:24, 39, 45, 20 ,9, 12, W, None, None, ,  
12/07/2017 18:22, 39, 45, 20 ,9, 12, W, None, None, ,  
12/07/2017 18:14, 39, 44, 19 ,7, 9, W, None, None, ,  
12/07/2017 18:07, 40, 43, 20 ,6, 10, SW, None, None, ,  
12/07/2017 18:04, 41, 42, 20 ,7, 11, SW, None, None, ,  
12/07/2017 17:54, 41, 41, 19 ,9, 14, SW, None, None, ,  
12/07/2017 17:52, 42, 41, 20 ,10, 14, SW, None, None, ,  
12/07/2017 17:44, 42, 40, 20 ,11, 14, SW, None, None, ,  
12/07/2017 17:37, 43, 39, 20 ,9, 15, SW, None, None, ,  
12/07/2017 17:34, 43, 39, 20 ,9, 15, SW, None, None, ,  
12/07/2017 17:24, 43, 39, 20 ,11, 16, SW, None, None, ,  
12/07/2017 17:22, 43, 38, 20 ,12, 16, SW, None, None, ,  
12/07/2017 17:14, 43, 38, 20 ,12, 16, SW, None, None, ,  
12/07/2017 17:07, 44, 37, 20 ,11, 17, SW, None, None, ,  
12/07/2017 17:04, 44, 37, 19 ,11, 17, SW, None, None, ,  
12/07/2017 16:54, 45, 36, 20 ,12, 16, SW, None, None, ,  
12/07/2017 16:52, 45, 36, 20 ,11, 16, SW, None, None, ,  
12/07/2017 16:44, 46, 35, 20 ,10, 18, SW, None, None, ,  
12/07/2017 16:37, 47, 34, 20 ,15, 18, SW, None, None, ,  
12/07/2017 16:34, 46, 34, 20 ,13, 17, SW, None, None, ,  
12/07/2017 16:24, 48, 32, 20 ,11, 16, SW, None, None, ,  
12/07/2017 16:22, 48, 32, 20 ,12, 16, SW, None, None, ,  
12/07/2017 16:14, 49, 30, 20 ,12, 17, SW, None, None, ,  
12/07/2017 16:07, 50, 30, 20 ,14, 17, W, None, None, ,  
12/07/2017 16:04, 50, 30, 20 ,11, 13, SW, None, None, ,  
12/07/2017 15:54, 51, 29, 20 ,10, 14, SW, None, None, ,  
12/07/2017 15:52, 51, 29, 20 ,9, 14, SW, None, None, ,  
12/07/2017 15:43, 52, 28, 20 ,11, 15, W, None, None, ,  
12/07/2017 15:37, 52, 28, 20 ,11, 16, SW, None, None, ,  
12/07/2017 15:33, 52, 28, 20 ,11, 16, SW, None, None, ,  
12/07/2017 15:23, 52, 28, 20 ,11, 18, SW, None, None, ,  
12/07/2017 15:22, 52, 27, 20 ,12, 18, SW, None, None, ,  
12/07/2017 15:13, 53, 27, 20 ,11, 18, SW, None, None, ,  
12/07/2017 15:07, 53, 26, 20 ,10, 17, SW, None, None, ,  
12/07/2017 15:03, 53, 26, 20 ,13, 16, W, None, None, ,  
12/07/2017 14:53, 53, 26, 20 ,13, 17, SW, None, None, ,  
12/07/2017 14:52, 53, 26, 20 ,12, 18, SW, None, None, ,  
12/07/2017 14:43, 53, 26, 20 ,15, 20, SW, None, None, ,  
12/07/2017 14:37, 53, 26, 19 ,14, 21, W, None, None, ,  
12/07/2017 14:33, 53, 25, 19 ,16, 21, SW, None, None, ,  
12/07/2017 14:23, 54, 26, 20 ,17, 21, SW, None, None, ,  
12/07/2017 14:22, 54, 26, 20 ,16, 19, SW, None, None, ,  
12/07/2017 14:13, 53, 28, 21 ,15, 20, SW, None, None, ,  
12/07/2017 14:07, 53, 28, 21 ,14, 21, SW, None, None, ,  
12/07/2017 14:03, 53, 28, 21 ,14, 21, SW, None, None, ,  
12/07/2017 13:53, 53, 28, 21 ,14, 18, SW, None, None, ,  
12/07/2017 13:52, 53, 29, 21 ,13, 18, SW, None, None, ,  
12/07/2017 13:43, 51, 30, 21 ,12, 19, SW, None, None, ,  
12/07/2017 13:37, 51, 31, 21 ,11, 17, SW, None, None, ,  
12/07/2017 13:33, 51, 30, 21 ,14, 17, SW, None, None, ,  
12/07/2017 13:23, 51, 31, 21 ,10, 19, SW, None, None, ,  
12/07/2017 13:22, 51, 31, 21 ,11, 19, SW, None, None, ,  
12/07/2017 13:12, 51, 31, 21 ,10, 21, SW, None, None, ,  
12/07/2017 13:07, 50, 31, 21 ,12, 21, SW, None, None, ,  
12/07/2017 13:02, 50, 31, 21 ,12, 20, SW, None, None, ,  
12/07/2017 12:52, 50, 31, 21 ,14, 19, SW, None, None, ,  
12/07/2017 12:52, 50, 31, 21 ,13, 18, SW, None, None, ,  
12/07/2017 12:42, 49, 31, 21 ,12, 23, SW, None, None, ,  
12/07/2017 12:37, 49, 32, 20 ,13, 23, SW, None, None, ,  
12/07/2017 12:32, 49, 32, 20 ,15, 21, SW, None, None, ,  
12/07/2017 12:22, 49, 32, 21 ,12, 19, SW, None, None, ,  
12/07/2017 12:22, 49, 32, 21 ,12, 19, SW, None, None, ,  
12/07/2017 12:12, 47, 34, 21 ,11, 17, SW, None, None, ,  
12/07/2017 12:07, 46, 35, 20 ,11, 16, SW, None, None, ,  
12/07/2017 12:02, 46, 36, 20 ,11, 14, SW, None, None, ,  
12/07/2017 11:52, 45, 37, 20 ,11, 17, SW, None, None, ,  
12/07/2017 11:52, 45, 37, 20 ,12, 17, SW, None, None, ,  
12/07/2017 11:42, 45, 37, 20 ,9, 18, SW, None, None, ,  
12/07/2017 11:37, 44, 38, 20 ,12, 19, SW, None, None, ,  
12/07/2017 11:32, 44, 37, 20 ,13, 17, SW, None, None, ,  
12/07/2017 11:22, 43, 38, 20 ,12, 16, SW, None, None, ,  
12/07/2017 11:22, 43, 39, 20 ,12, 16, SW, None, None, ,  
12/07/2017 11:12, 42, 40, 20 ,11, 13, SW, None, None, ,  
12/07/2017 11:07, 42, 41, 20 ,9, 14, SW, None, None, ,  
12/07/2017 11:02, 42, 41, 20 ,11, 14, SW, None, None, ,  
12/07/2017 10:52, 39, 45, 20 ,7, 12, SW, None, None, ,  
12/07/2017 10:52, 39, 45, 20 ,7, 12, SW, None, None, ,  
12/07/2017 10:41, 38, 45, 19 ,8, 12, SW, None, None, ,  
12/07/2017 10:37, 38, 46, 20 ,7, 9, SW, None, None, ,  
12/07/2017 10:31, 37, 48, 20 ,7, 9, SW, None, None, ,  
12/07/2017 10:22, 36, 50, 19 ,7, 9, SW, None, None, ,  
12/07/2017 10:21, 36, 50, 19 ,7, 9, SW, None, None, ,  
12/07/2017 10:11, 35, 51, 19 ,5, 8, SW, None, None, ,  
12/07/2017 10:07, 35, 52, 19 ,6, 9, SW, None, None, ,  
12/07/2017 10:01, 34, 53, 19 ,5, 9, SW, None, None, ,  
12/07/2017 09:52, 33, 54, 19 ,6, 10, SW, None, None, ,  
12/07/2017 09:51, 33, 55, 19 ,7, 10, SW, None, None, ,  
12/07/2017 09:41, 31, 58, 19 ,9, 11, SW, None, None, ,  
12/07/2017 09:37, 31, 58, 18 ,8, 12, SW, None, None, ,  
12/07/2017 09:31, 30, 59, 18 ,9, 11, W, None, None, ,  
12/07/2017 09:22, 30, 60, 18 ,9, 12, W, None, None, ,  
12/07/2017 09:21, 30, 60, 18 ,9, 12, SW, None, None, ,  
12/07/2017 09:11, 30, 60, 18 ,12, 14, W, None, None, ,  
12/07/2017 09:07, 29, 60, 17 ,12, 14, W, None, None, ,  
12/07/2017 09:01, 29, 60, 17 ,11, 12, W, None, None, ,  
12/07/2017 08:52, 29, 61, 17 ,9, 13, W, None, None, ,  
12/07/2017 08:51, 29, 61, 17 ,11, 13, SW, None, None, ,  
12/07/2017 08:41, 29, 62, 17 ,11, 13, SW, None, None, ,  
12/07/2017 08:38, 29, 62, 17 ,10, 13, SW, None, None, ,  
12/07/2017 08:31, 29, 61, 17 ,10, 14, W, None, None, ,  
12/07/2017 08:22, 29, 62, 17 ,9, 12, SW, None, None, ,  
12/07/2017 08:21, 29, 62, 17 ,9, 11, W, None, None, ,  
12/07/2017 08:10, 28, 64, 17 ,8, 9, W, None, None, ,  
12/07/2017 08:07, 28, 63, 17 ,6, 9, W, None, None, ,  
12/07/2017 08:00, 28, 63, 17 ,7, 9, W, None, None, ,  
12/07/2017 07:52, 28, 60, 16 ,8, 13, W, None, None, ,  
12/07/2017 07:50, 29, 59, 16 ,7, 13, SW, None, None, ,  
12/07/2017 07:40, 29, 58, 17 ,9, 14, SW, None, None, ,  
12/07/2017 07:37, 30, 57, 17 ,10, 14, SW, None, None, ,  
12/07/2017 07:30, 30, 57, 17 ,12, 14, SW, None, None, ,  
12/07/2017 07:22, 30, 58, 17 ,10, 12, SW, None, None, ,  
12/07/2017 07:20, 29, 59, 17 ,9, 11, SW, None, None, ,  
12/07/2017 07:10, 28, 61, 17 ,7, 9, W, None, None, ,  
12/07/2017 07:07, 28, 61, 17 ,7, 9, SW, None, None, ,  
12/07/2017 07:00, 28, 61, 16 ,6, 7, SW, None, None, ,  
12/07/2017 06:53, 28, 61, 16 ,6, 9, SW, None, None, ,  
12/07/2017 06:50, 29, 60, 17 ,6, 11, SW, None, None, ,  
12/07/2017 06:40, 30, 58, 17 ,10, 12, SW, None, None, ,  
12/07/2017 06:37, 30, 57, 17 ,10, 12, SW, None, None, ,  
12/07/2017 06:30, 30, 57, 17 ,11, 14, SW, None, None, ,  
12/07/2017 06:22, 30, 56, 17 ,11, 17, SW, None, None, ,  
12/07/2017 06:20, 30, 56, 17 ,12, 18, SW, None, None, ,  
12/07/2017 06:10, 30, 58, 17 ,12, 17, SW, None, None, ,  
12/07/2017 06:08, 29, 58, 17 ,11, 17, SW, None, None, ,  
12/07/2017 06:00, 30, 57, 17 ,14, 17, W, None, None, ,  
12/07/2017 05:52, 30, 57, 17 ,11, 15, SW, None, None, ,  
12/07/2017 05:50, 29, 58, 17 ,11, 15, SW, None, None, ,  
12/07/2017 05:40, 29, 58, 17 ,12, 17, SW, None, None, ,  
12/07/2017 05:37, 30, 57, 17 ,11, 17, SW, None, None, ,  
12/07/2017 05:30, 30, 57, 17 ,12, 16, SW, None, None, ,  
12/07/2017 05:22, 30, 58, 17 ,12, 16, SW, None, None, ,  
12/07/2017 05:19, 29, 58, 17 ,11, 16, SW, None, None, ,  
12/07/2017 05:09, 30, 58, 17 ,12, 16, SW, None, None, ,  
12/07/2017 05:08, 30, 58, 17 ,14, 16, SW, None, None, ,  
12/07/2017 04:59, 30, 58, 17 ,13, 15, SW, None, None, ,  
12/07/2017 04:52, 30, 57, 17 ,11, 16, W, None, None, ,  
12/07/2017 04:49, 30, 57, 17 ,12, 16, SW, None, None, ,  
12/07/2017 04:39, 30, 57, 17 ,11, 16, W, None, None, ,  
12/07/2017 04:37, 30, 57, 17 ,12, 16, SW, None, None, ,  
12/07/2017 04:29, 29, 58, 17 ,9, 12, SW, None, None, ,  
12/07/2017 04:22, 29, 58, 17 ,7, 12, SW, None, None, ,  
12/07/2017 04:19, 29, 59, 16 ,9, 12, SW, None, None, ,  
12/07/2017 04:09, 29, 57, 16 ,11, 14, W, None, None, ,  
12/07/2017 04:08, 29, 58, 17 ,11, 15, SW, None, None, ,  
12/07/2017 03:59, 30, 57, 17 ,11, 16, SW, None, None, ,  
12/07/2017 03:52, 29, 58, 17 ,11, 16, SW, None, None, ,  
12/07/2017 03:49, 29, 58, 16 ,12, 15, SW, None, None, ,  
12/07/2017 03:39, 29, 58, 16 ,12, 14, W, None, None, ,  
12/07/2017 03:37, 29, 58, 16 ,12, 14, W, None, None, ,  
12/07/2017 03:29, 29, 58, 16 ,12, 14, W, None, None, ,  
12/07/2017 03:23, 29, 59, 16 ,12, 15, SW, None, None, ,  
12/07/2017 03:19, 29, 59, 16 ,11, 15, SW, None, None, ,  
12/07/2017 03:09, 29, 58, 16 ,9, 14, W, None, None, ,  
12/07/2017 03:07, 29, 58, 16 ,10, 14, SW, None, None, ,  
12/07/2017 02:59, 29, 57, 16 ,12, 14, SW, None, None, ,  
12/07/2017 02:53, 29, 56, 16 ,12, 15, SW, None, None, ,  
12/07/2017 02:49, 29, 56, 16 ,12, 16, W, None, None, ,  
12/07/2017 02:39, 29, 56, 16 ,14, 17, SW, None, None, ,  
12/07/2017 02:37, 29, 57, 16 ,13, 17, SW, None, None, ,  
12/07/2017 02:28, 29, 56, 16 ,11, 16, SW, None, None, ,  
12/07/2017 02:22, 30, 56, 16 ,9, 13, SW, None, None, ,  
12/07/2017 02:18, 30, 56, 16 ,9, 12, SW, None, None, ,  
12/07/2017 02:08, 29, 57, 16 ,8, 12, SW, None, None, ,  
12/07/2017 02:08, 29, 57, 16 ,8, 12, SW, None, None, ,  
12/07/2017 01:58, 29, 57, 16 ,9, 13, SW, None, None, ,  
12/07/2017 01:52, 30, 56, 16 ,9, 14, SW, None, None, ,  
12/07/2017 01:48, 30, 56, 16 ,11, 14, SW, None, None, ,  
12/07/2017 01:38, 30, 56, 16 ,8, 12, SW, None, None, ,  
12/07/2017 01:38, 30, 56, 16 ,8, 12, SW, None, None, ,  
12/07/2017 01:28, 30, 55, 16 ,8, 13, SW, None, None, ,  
12/07/2017 01:22, 30, 56, 17 ,10, 13, SW, None, None, ,  
12/07/2017 01:18, 30, 55, 16 ,7, 12, SW, None, None, ,  
12/07/2017 01:08, 31, 55, 16 ,10, 16, SW, None, None, ,  
12/07/2017 01:08, 31, 55, 16 ,10, 16, SW, None, None, ,  
12/07/2017 00:58, 31, 56, 17 ,12, 15, W, None, None, ,  
12/07/2017 00:52, 31, 55, 17 ,12, 14, SW, None, None, ,  
12/07/2017 00:48, 31, 55, 17 ,11, 13, SW, None, None, ,  
12/07/2017 00:38, 31, 56, 17 ,11, 12, SW, None, None, ,  
12/07/2017 00:37, 31, 56, 17 ,10, 12, SW, None, None, ,  
12/07/2017 00:28, 31, 54, 17 ,9, 12, SW, None, None, ,  
12/07/2017 00:23, 32, 54, 17 ,9, 11, SW, None, None, ,  
12/07/2017 00:18, 32, 53, 17 ,8, 11, SW, None, None, ,  
12/07/2017 00:08, 32, 53, 17 ,6, 9, W, None, None, ,  
12/07/2017 00:07, 32, 53, 17 ,7, 9, W, None, None, ,  
12/06/2017 23:57, 33, 52, 17 ,7, 11, SW, None, None, ,  
12/06/2017 23:53, 33, 52, 17 ,9, 11, W, None, None, ,  
12/06/2017 23:47, 33, 52, 17 ,9, 11, SW, None, None, ,  
12/06/2017 23:37, 32, 53, 17 ,8, 12, SW, None, None, ,  
12/06/2017 23:37, 32, 53, 17 ,8, 12, SW, None, None, ,  
12/06/2017 23:27, 32, 53, 17 ,9, 12, SW, None, None, ,  
12/06/2017 23:22, 32, 54, 17 ,9, 12, SW, None, None, ,  
12/06/2017 23:17, 32, 54, 18 ,9, 11, SW, None, None, ,  
12/06/2017 23:07, 33, 54, 18 ,7, 11, SW, None, None, ,  
12/06/2017 23:07, 33, 54, 18 ,7, 11, SW, None, None, ,  
12/06/2017 22:57, 33, 52, 18 ,8, 11, SW, None, None, ,  
12/06/2017 22:53, 33, 52, 18 ,7, 10, W, None, None, ,  
12/06/2017 22:47, 34, 51, 18 ,7, 10, W, None, None, ,  
12/06/2017 22:38, 34, 51, 18 ,7, 9, W, None, None, ,  
12/06/2017 22:37, 34, 51, 18 ,7, 11, W, None, None, ,  
12/06/2017 22:27, 35, 50, 18 ,9, 12, SW, None, None, ,  
12/06/2017 22:22, 35, 50, 18 ,9, 12, W, None, None, ,  
12/06/2017 22:17, 35, 49, 18 ,9, 13, SW, None, None, ,  
12/06/2017 22:07, 35, 49, 18 ,9, 14, SW, None, None, ,  
12/06/2017 22:07, 35, 49, 18 ,9, 14, SW, None, None, ,  
12/06/2017 21:57, 35, 49, 18 ,9, 12, SW, None, None, ,  
12/06/2017 21:52, 35, 49, 18 ,9, 14, SW, None, None, ,  
12/06/2017 21:47, 36, 49, 18 ,10, 15, W, None, None, ,  
12/06/2017 21:37, 35, 49, 18 ,7, 12, SW, None, None, ,  
12/06/2017 21:37, 35, 49, 18 ,9, 12, SW, None, None, ,  
12/06/2017 21:27, 35, 49, 18 ,9, 12, SW, None, None, ,  
12/06/2017 21:22, 35, 50, 18 ,9, 10, SW, None, None, ,  
12/06/2017 21:16, 35, 50, 18 ,7, 9, W, None, None, ,  
12/06/2017 21:07, 35, 49, 18 ,6, 7, W, None, None, ,  
12/06/2017 21:06, 35, 48, 18 ,6, 7, W, None, None, ,  
12/06/2017 20:56, 35, 49, 18 ,5, 6, W, None, None, ,  
12/06/2017 20:52, 35, 49, 18 ,4, 7, W, None, None, ,  
12/06/2017 20:46, 35, 49, 18 ,6, 8, W, None, None, ,  
12/06/2017 20:37, 35, 49, 18 ,6, 7, W, None, None, ,  
12/06/2017 20:36, 35, 49, 18 ,6, 7, W, None, None, ,  
12/06/2017 20:26, 34, 50, 17 ,4, 6, SW, None, None, ,  
12/06/2017 20:22, 34, 49, 17 ,4, 7, W, None, None, ,  
12/06/2017 20:16, 34, 49, 17 ,6, 7, W, None, None, ,  
12/06/2017 20:07, 34, 50, 17 ,6, 6, SW, None, None, ,  
12/06/2017 20:06, 34, 50, 17 ,5, 6, SW, None, None, ,  
12/06/2017 19:56, 34, 50, 17 ,5, 7, SW, None, None, ,  
12/06/2017 19:52, 34, 50, 17 ,4, 7, SW, None, None, ,  
12/06/2017 19:46, 34, 49, 17 ,7, 10, SW, None, None, ,  
12/06/2017 19:37, 35, 49, 17 ,7, 11, SW, None, None, ,  
12/06/2017 19:36, 35, 49, 17 ,9, 11, SW, None, None, ,  
12/06/2017 19:26, 35, 49, 17 ,8, 9, W, None, None, ,  
12/06/2017 19:22, 34, 48, 17 ,7, 9, W, None, None, ,  
12/06/2017 19:16, 35, 47, 17 ,7, 9, W, None, None, ,  
12/06/2017 19:07, 34, 48, 17 ,6, 7, W, None, None, ,  
12/06/2017 19:06, 34, 48, 17 ,6, 7, W, None, None, ,  
12/06/2017 18:56, 34, 44, 15 ,1, 4, NW, None, None, ,  
12/06/2017 18:53, 34, 44, 14 ,1, 4, SW, None, None, ,  
Change End Date:

Copyright © 1998-2015 Vaisala, Inc.
All Rights Reserved
Send comments about the data to:
SCAN Web ® is a registered trademark of Vaisala, Inc.
SCAN Web Version 6.0